CAA2984 TNCA-MDPC
Flight info
| Callsign | CAA2984 |
|---|---|
| Flight time | N/A |
| Altitude | 33000 |
| Route | VESKA1F VESKA VESKA2B |
| Aircraft | B734/M-SDE2E3FHIRW/S |
Departure
| Time | 2026-04-27 03:34 |
|---|---|
| Airport | Queen Beatrix International Airport (TNCA) |
Arrival
| Time | N/A |
|---|---|
| Airport | Punta Cana International Airport (MDPC) |
| Time | Latitude | Longitude | Altitude | Speed | Heading |
|---|---|---|---|---|---|
| 2026-04-27 03:11 | 12.50344 | -70.01018 | 71 ft | 0 kts | 17° |
| 2026-04-27 03:27 | 12.50343 | -70.01019 | 71 ft | 1 kts | 17° |
| 2026-04-27 03:27 | 12.50331 | -70.01022 | 71 ft | 2 kts | 10° |
| 2026-04-27 03:27 | 12.50313 | -70.01023 | 71 ft | 3 kts | 355° |
| 2026-04-27 03:27 | 12.50293 | -70.01019 | 71 ft | 3 kts | 339° |
| 2026-04-27 03:28 | 12.50275 | -70.01010 | 71 ft | 3 kts | 324° |
| 2026-04-27 03:28 | 12.50259 | -70.00996 | 71 ft | 3 kts | 311° |
| 2026-04-27 03:28 | 12.50250 | -70.00983 | 71 ft | 0 kts | 302° |
| 2026-04-27 03:29 | 12.50251 | -70.00984 | 71 ft | 2 kts | 301° |
| 2026-04-27 03:30 | 12.50251 | -70.01079 | 71 ft | 18 kts | 271° |
| 2026-04-27 03:30 | 12.50243 | -70.01196 | 71 ft | 19 kts | 283° |
| 2026-04-27 03:30 | 12.50278 | -70.01347 | 71 ft | 21 kts | 284° |
| 2026-04-27 03:30 | 12.50310 | -70.01484 | 71 ft | 21 kts | 283° |
| 2026-04-27 03:31 | 12.50355 | -70.01674 | 71 ft | 28 kts | 284° |
| 2026-04-27 03:31 | 12.50399 | -70.01851 | 71 ft | 23 kts | 283° |
| 2026-04-27 03:31 | 12.50432 | -70.01998 | 71 ft | 19 kts | 283° |
| 2026-04-27 03:31 | 12.50458 | -70.02114 | 71 ft | 14 kts | 283° |
| 2026-04-27 03:32 | 12.50496 | -70.02277 | 71 ft | 33 kts | 284° |
| 2026-04-27 03:32 | 12.50549 | -70.02498 | 71 ft | 25 kts | 284° |
| 2026-04-27 03:32 | 12.50581 | -70.02653 | 71 ft | 20 kts | 267° |
| 2026-04-27 03:32 | 12.50498 | -70.02764 | 71 ft | 17 kts | 194° |
| 2026-04-27 03:33 | 12.50432 | -70.02748 | 71 ft | 7 kts | 116° |
| 2026-04-27 03:33 | 12.50388 | -70.02577 | 71 ft | 65 kts | 103° |
| 2026-04-27 03:33 | 12.50194 | -70.01760 | 88 ft | 163 kts | 103° |
| 2026-04-27 03:33 | 12.49860 | -70.00582 | 421 ft | 183 kts | 105° |
| 2026-04-27 03:34 | 12.49462 | -69.99300 | 938 ft | 189 kts | 105° |
| 2026-04-27 03:34 | 12.49097 | -69.98042 | 1422 ft | 183 kts | 105° |
| 2026-04-27 03:34 | 12.48735 | -69.96753 | 1938 ft | 192 kts | 105° |
| 2026-04-27 03:34 | 12.48498 | -69.95397 | 2427 ft | 196 kts | 90° |
| 2026-04-27 03:35 | 12.48855 | -69.94040 | 2939 ft | 206 kts | 66° |
| 2026-04-27 03:35 | 12.49826 | -69.92852 | 3471 ft | 236 kts | 45° |
| 2026-04-27 03:35 | 12.51315 | -69.92032 | 3990 ft | 251 kts | 23° |
| 2026-04-27 03:35 | 12.53075 | -69.91715 | 4521 ft | 262 kts | 10° |
| 2026-04-27 03:36 | 12.54908 | -69.91574 | 5023 ft | 265 kts | 8° |
| 2026-04-27 03:36 | 12.56761 | -69.91412 | 5539 ft | 266 kts | 10° |
| 2026-04-27 03:36 | 12.58600 | -69.91170 | 6178 ft | 267 kts | 12° |
| 2026-04-27 03:36 | 12.60416 | -69.90844 | 6795 ft | 269 kts | 14° |
| 2026-04-27 03:37 | 12.62254 | -69.90435 | 7426 ft | 272 kts | 17° |
| 2026-04-27 03:37 | 12.64100 | -69.89961 | 8054 ft | 274 kts | 18° |
| 2026-04-27 03:37 | 12.65354 | -69.89612 | 8480 ft | 276 kts | 19° |
| 2026-04-27 03:37 | 12.67189 | -69.89072 | 9100 ft | 279 kts | 19° |
| 2026-04-27 03:38 | 12.69062 | -69.88494 | 9728 ft | 282 kts | 19° |
| 2026-04-27 03:38 | 12.70950 | -69.87894 | 10357 ft | 285 kts | 20° |
| 2026-04-27 03:38 | 12.72854 | -69.87277 | 10988 ft | 293 kts | 19° |
| 2026-04-27 03:38 | 12.74868 | -69.86614 | 11630 ft | 313 kts | 19° |
| 2026-04-27 03:39 | 12.76985 | -69.85912 | 12267 ft | 327 kts | 19° |
| 2026-04-27 03:39 | 12.79192 | -69.85179 | 12901 ft | 340 kts | 19° |
| 2026-04-27 03:39 | 12.81492 | -69.84415 | 13534 ft | 353 kts | 19° |
| 2026-04-27 03:39 | 12.83863 | -69.83626 | 14168 ft | 363 kts | 18° |
| 2026-04-27 03:40 | 12.86299 | -69.82816 | 14799 ft | 373 kts | 18° |
| 2026-04-27 03:40 | 12.88793 | -69.81986 | 15429 ft | 381 kts | 18° |
| 2026-04-27 03:40 | 12.91341 | -69.81138 | 16059 ft | 388 kts | 18° |
| 2026-04-27 03:40 | 12.93924 | -69.80385 | 16673 ft | 394 kts | 11° |
| 2026-04-27 03:41 | 12.96667 | -69.80193 | 17305 ft | 398 kts | 358° |
| 2026-04-27 03:41 | 12.99438 | -69.80475 | 17939 ft | 401 kts | 351° |
| 2026-04-27 03:41 | 13.02191 | -69.81029 | 18569 ft | 404 kts | 346° |
| 2026-04-27 03:41 | 13.04928 | -69.81739 | 19197 ft | 407 kts | 344° |
| 2026-04-27 03:42 | 13.07655 | -69.82537 | 19824 ft | 408 kts | 342° |
| 2026-04-27 03:42 | 13.10384 | -69.83383 | 20451 ft | 410 kts | 342° |
| 2026-04-27 03:42 | 13.13110 | -69.84253 | 21076 ft | 411 kts | 341° |
| 2026-04-27 03:42 | 13.15844 | -69.85137 | 21701 ft | 412 kts | 341° |
| 2026-04-27 03:43 | 13.18581 | -69.86024 | 22327 ft | 412 kts | 341° |
| 2026-04-27 03:43 | 13.21330 | -69.86914 | 22886 ft | 415 kts | 341° |
| 2026-04-27 03:43 | 13.24060 | -69.87795 | 23390 ft | 417 kts | 341° |
| 2026-04-27 03:43 | 13.26847 | -69.88691 | 23894 ft | 420 kts | 341° |
| 2026-04-27 03:44 | 13.29646 | -69.89587 | 24396 ft | 422 kts | 341° |
| 2026-04-27 03:44 | 13.32465 | -69.90485 | 24899 ft | 424 kts | 341° |
| 2026-04-27 03:44 | 13.35286 | -69.91380 | 25400 ft | 425 kts | 341° |
| 2026-04-27 03:44 | 13.38121 | -69.92277 | 25863 ft | 427 kts | 341° |
| 2026-04-27 03:45 | 13.40978 | -69.93179 | 26257 ft | 431 kts | 341° |
| 2026-04-27 03:45 | 13.43856 | -69.94086 | 26637 ft | 434 kts | 340° |
| 2026-04-27 03:45 | 13.46721 | -69.94987 | 27010 ft | 437 kts | 340° |
| 2026-04-27 03:45 | 13.49639 | -69.95905 | 27387 ft | 439 kts | 340° |
| 2026-04-27 03:46 | 13.52567 | -69.96823 | 27763 ft | 441 kts | 340° |
| 2026-04-27 03:46 | 13.55518 | -69.97748 | 28140 ft | 443 kts | 340° |
| 2026-04-27 03:46 | 13.58475 | -69.98675 | 28516 ft | 445 kts | 340° |
| 2026-04-27 03:46 | 13.61440 | -69.99603 | 28892 ft | 446 kts | 340° |
| 2026-04-27 03:47 | 13.64425 | -70.00538 | 29269 ft | 447 kts | 340° |
| 2026-04-27 03:47 | 13.67371 | -70.01459 | 29640 ft | 448 kts | 340° |
| 2026-04-27 03:47 | 13.70354 | -70.02393 | 30016 ft | 448 kts | 340° |
| 2026-04-27 03:47 | 13.73345 | -70.03328 | 30391 ft | 449 kts | 340° |
| 2026-04-27 03:48 | 13.76335 | -70.04264 | 30766 ft | 449 kts | 340° |
| 2026-04-27 03:48 | 13.79326 | -70.05200 | 31141 ft | 449 kts | 339° |
| 2026-04-27 03:48 | 13.82327 | -70.06139 | 31517 ft | 449 kts | 339° |
| 2026-04-27 03:48 | 13.85321 | -70.07076 | 31891 ft | 450 kts | 339° |
| 2026-04-27 03:49 | 13.88322 | -70.08016 | 32267 ft | 450 kts | 339° |
| 2026-04-27 03:49 | 13.91321 | -70.08956 | 32641 ft | 450 kts | 339° |
| 2026-04-27 03:49 | 13.94335 | -70.09902 | 32780 ft | 456 kts | 339° |
| 2026-04-27 03:49 | 13.97391 | -70.10862 | 32885 ft | 462 kts | 339° |
| 2026-04-27 03:50 | 14.00442 | -70.11823 | 32943 ft | 468 kts | 339° |
| 2026-04-27 03:50 | 14.06756 | -70.13810 | 32959 ft | 477 kts | 339° |
| 2026-04-27 03:51 | 14.13156 | -70.15821 | 32962 ft | 483 kts | 339° |
| 2026-04-27 03:51 | 14.19591 | -70.17842 | 32967 ft | 489 kts | 339° |
| 2026-04-27 03:52 | 14.26132 | -70.19896 | 32967 ft | 492 kts | 339° |
| 2026-04-27 03:52 | 14.32711 | -70.21962 | 32967 ft | 494 kts | 339° |
| 2026-04-27 03:53 | 14.39260 | -70.24019 | 32967 ft | 495 kts | 339° |
| 2026-04-27 03:53 | 14.45852 | -70.26091 | 32967 ft | 495 kts | 339° |
| 2026-04-27 03:54 | 14.52446 | -70.28165 | 32968 ft | 495 kts | 339° |
| 2026-04-27 03:54 | 14.59052 | -70.30244 | 32967 ft | 495 kts | 339° |
| 2026-04-27 03:55 | 14.65618 | -70.32313 | 32968 ft | 495 kts | 339° |
| 2026-04-27 03:55 | 14.72218 | -70.34395 | 32968 ft | 495 kts | 339° |
| 2026-04-27 03:56 | 14.78811 | -70.36476 | 32968 ft | 495 kts | 339° |
| 2026-04-27 03:56 | 14.85404 | -70.38558 | 32968 ft | 495 kts | 339° |
| 2026-04-27 03:57 | 14.91948 | -70.40627 | 32968 ft | 494 kts | 339° |
| 2026-04-27 03:57 | 14.98522 | -70.42706 | 32969 ft | 494 kts | 339° |
| 2026-04-27 03:58 | 15.04004 | -70.44442 | 32969 ft | 494 kts | 339° |